Time;durP1;ratioP1;P1;durP2;ratioP2;P2;SDS_P1;SDS_P2;PMS_P1;PMS_P2;Temp;Humidity;BMP_temperature;BMP_pressure;BME280_temperature;BME280_humidity;BME280_pressure;Samples;Min_cycle;Max_cycle;Signal;HPM_P1;HPM_P2
2023/07/12 00:01:47;;;;;;;5.60;3.00;;;22.20;99.90;;;;;;5038834;28;20463;-70
2023/07/12 00:04:34;;;;;;;10.27;3.20;;;22.30;99.90;;;;;;5032265;28;20447;-70
2023/07/12 00:07:21;;;;;;;5.50;3.50;;;22.40;99.90;;;;;;5040618;28;20444;-70
2023/07/12 00:10:19;;;;;;;6.70;3.70;;;22.30;99.90;;;;;;5029602;28;20957;-70
2023/07/12 00:13:04;;;;;;;4.80;3.33;;;22.30;99.90;;;;;;5037664;28;20614;-70
2023/07/12 00:15:51;;;;;;;5.13;3.20;;;22.30;99.90;;;;;;5039838;28;20802;-70
2023/07/12 00:18:37;;;;;;;5.10;3.20;;;22.20;99.90;;;;;;5047349;28;20426;-70
2023/07/12 00:21:26;;;;;;;4.80;3.27;;;22.30;99.90;;;;;;5040078;28;20478;-70
2023/07/12 00:24:11;;;;;;;4.47;2.80;;;22.20;99.90;;;;;;5045024;28;20489;-70
2023/07/12 00:26:58;;;;;;;7.83;3.00;;;22.20;99.90;;;;;;5045117;28;20440;-70
2023/07/12 00:29:43;;;;;;;4.37;2.90;;;22.10;99.90;;;;;;5034290;28;20830;-70
2023/07/12 00:32:29;;;;;;;3.53;2.70;;;22.10;99.90;;;;;;5037108;28;20460;-70
2023/07/12 00:35:17;;;;;;;6.60;3.93;;;22.10;99.90;;;;;;5037353;28;20449;-70
2023/07/12 00:38:04;;;;;;;5.80;3.53;;;22.00;99.90;;;;;;5044418;28;20463;-69
2023/07/12 00:41:08;;;;;;;6.13;3.67;;;22.10;99.90;;;;;;5035876;28;20448;-70
2023/07/12 00:44:00;;;;;;;5.37;3.43;;;22.00;99.90;;;;;;5039166;28;20522;-70
2023/07/12 00:46:49;;;;;;;15.40;3.80;;;22.10;99.90;;;;;;5036761;28;20591;-70
2023/07/12 00:49:34;;;;;;;6.70;3.33;;;22.10;99.90;;;;;;5038467;28;20909;-70
2023/07/12 00:52:22;;;;;;;6.20;3.30;;;22.10;99.90;;;;;;5038071;28;20443;-70
2023/07/12 00:55:45;;;;;;;3.50;3.00;;;22.00;99.90;;;;;;5039833;28;20448;-70
2023/07/12 00:58:36;;;;;;;7.83;3.30;;;21.90;99.90;;;;;;5032313;28;20467;-69
2023/07/12 01:01:26;;;;;;;6.30;3.90;;;21.90;99.90;;;;;;5037217;28;20456;-70
2023/07/12 01:04:14;;;;;;;5.60;3.13;;;21.90;99.90;;;;;;5042526;28;20448;-70
2023/07/12 01:07:00;;;;;;;7.30;3.33;;;21.80;99.90;;;;;;5041003;28;20449;-70
2023/07/12 01:09:45;;;;;;;15.63;3.63;;;21.70;99.90;;;;;;5042970;28;20467;-70
2023/07/12 01:12:31;;;;;;;6.40;3.30;;;21.70;99.90;;;;;;5047719;28;21012;-69
2023/07/12 01:15:18;;;;;;;4.13;3.33;;;21.70;99.90;;;;;;5041491;28;20768;-70
2023/07/12 01:18:04;;;;;;;7.07;3.67;;;21.70;99.90;;;;;;5040874;28;20927;-70
2023/07/12 01:21:05;;;;;;;7.20;3.57;;;21.70;99.90;;;;;;5037421;28;20943;-70
2023/07/12 01:23:51;;;;;;;8.43;4.30;;;21.50;99.90;;;;;;5033299;28;20472;-70
2023/07/12 01:26:38;;;;;;;6.40;3.50;;;21.60;99.90;;;;;;5039523;28;20448;-70
2023/07/12 01:29:24;;;;;;;5.77;3.70;;;21.50;99.90;;;;;;5034387;28;20512;-70
2023/07/12 01:32:10;;;;;;;7.80;3.80;;;21.50;99.90;;;;;;5035646;28;20447;-70
2023/07/12 01:34:55;;;;;;;7.53;3.97;;;21.40;99.90;;;;;;5038558;28;20443;-70
2023/07/12 01:37:42;;;;;;;5.87;3.73;;;21.40;99.90;;;;;;5034206;28;20453;-70
2023/07/12 01:40:27;;;;;;;6.43;3.80;;;21.50;99.90;;;;;;5039591;28;20563;-70
2023/07/12 01:43:13;;;;;;;5.13;3.83;;;21.40;99.90;;;;;;5045714;28;20466;-70
2023/07/12 01:45:59;;;;;;;7.83;3.30;;;21.60;99.90;;;;;;5045708;28;20466;-70
2023/07/12 01:48:44;;;;;;;5.77;3.50;;;21.60;99.90;;;;;;5033860;28;20845;-70
2023/07/12 01:51:30;;;;;;;5.97;3.50;;;21.50;99.90;;;;;;5034631;28;21232;-69
2023/07/12 01:54:17;;;;;;;5.90;3.40;;;21.50;99.90;;;;;;5034881;28;20452;-69
2023/07/12 01:57:02;;;;;;;9.63;3.80;;;21.50;99.90;;;;;;5037857;28;20632;-70
2023/07/12 01:59:48;;;;;;;7.47;4.60;;;21.40;99.90;;;;;;5040999;28;20461;-70
2023/07/12 02:02:33;;;;;;;5.80;3.30;;;21.40;99.90;;;;;;5054167;22;20552;-72
2023/07/12 02:05:21;;;;;;;4.63;3.50;;;21.50;99.90;;;;;;5012583;28;20468;-72
2023/07/12 02:08:07;;;;;;;9.90;4.10;;;21.40;99.90;;;;;;5024888;28;20549;-72
2023/07/12 02:10:54;;;;;;;5.10;3.30;;;21.50;99.90;;;;;;5022018;28;20986;-71
2023/07/12 02:13:39;;;;;;;11.53;3.90;;;21.40;99.90;;;;;;5012139;28;20764;-72
2023/07/12 02:16:24;;;;;;;10.73;3.40;;;21.30;99.90;;;;;;5014439;28;21024;-72
2023/07/12 02:19:10;;;;;;;9.40;3.93;;;21.20;99.90;;;;;;5018032;28;20476;-71
2023/07/12 02:21:56;;;;;;;5.87;3.33;;;21.00;99.90;;;;;;5024939;28;20436;-72
2023/07/12 02:24:41;;;;;;;4.70;3.30;;;21.00;99.90;;;;;;5018149;28;20443;-72
2023/07/12 02:27:28;;;;;;;11.07;4.33;;;21.20;99.90;;;;;;5016467;28;20469;-72
2023/07/12 02:30:16;;;;;;;4.60;4.00;;;21.10;99.90;;;;;;5017012;28;20518;-72
2023/07/12 02:33:02;;;;;;;4.00;2.90;;;21.10;99.90;;;;;;5023482;28;20457;-72
2023/07/12 02:35:50;;;;;;;7.73;3.70;;;21.10;99.90;;;;;;5018281;28;20441;-72
2023/07/12 02:38:35;;;;;;;13.90;3.20;;;21.10;99.90;;;;;;5015609;28;20437;-72
2023/07/12 02:41:21;;;;;;;12.80;3.20;;;21.00;99.90;;;;;;5019858;28;20485;-71
2023/07/12 02:44:08;;;;;;;9.73;3.83;;;21.00;99.90;;;;;;5017038;28;20816;-72
2023/07/12 02:46:54;;;;;;;8.83;3.87;;;21.00;99.90;;;;;;5025028;28;20495;-72
2023/07/12 02:49:40;;;;;;;7.90;4.10;;;21.00;99.90;;;;;;5021633;28;20445;-71
2023/07/12 02:52:25;;;;;;;8.03;3.53;;;20.90;99.90;;;;;;5016084;28;20551;-72
2023/07/12 02:55:11;;;;;;;9.63;3.33;;;20.90;99.90;;;;;;5013665;28;20471;-71
2023/07/12 02:57:56;;;;;;;7.87;3.60;;;20.90;99.90;;;;;;5024462;28;20965;-71
2023/07/12 03:00:43;;;;;;;7.20;3.80;;;20.80;99.90;;;;;;5023981;28;20437;-72
2023/07/12 03:03:29;;;;;;;14.07;3.90;;;20.80;99.90;;;;;;5019903;28;20485;-71
2023/07/12 03:06:15;;;;;;;7.63;4.10;;;20.80;99.90;;;;;;5020309;28;20938;-72
2023/07/12 03:09:00;;;;;;;6.37;3.60;;;20.80;99.90;;;;;;5030373;28;20444;-72
2023/07/12 03:11:47;;;;;;;8.20;3.40;;;20.80;99.90;;;;;;5030681;28;20489;-71
2023/07/12 03:14:32;;;;;;;13.00;4.03;;;20.70;99.90;;;;;;5015835;28;20499;-72
2023/07/12 03:17:19;;;;;;;8.07;3.57;;;20.70;99.90;;;;;;5024874;28;20428;-72
2023/07/12 03:20:05;;;;;;;21.60;3.40;;;20.80;99.90;;;;;;5016494;28;20449;-72
2023/07/12 03:22:51;;;;;;;7.47;3.40;;;20.90;99.90;;;;;;5017993;28;20459;-71
2023/07/12 03:25:36;;;;;;;10.53;3.67;;;21.00;99.90;;;;;;5016708;28;20436;-71
2023/07/12 03:28:22;;;;;;;7.97;4.20;;;21.00;99.90;;;;;;5023005;28;20449;-72
2023/07/12 03:31:11;;;;;;;5.10;3.50;;;21.00;99.90;;;;;;5020266;28;21061;-72
2023/07/12 03:33:59;;;;;;;14.33;3.30;;;21.10;99.90;;;;;;5028000;28;20439;-71
2023/07/12 03:36:45;;;;;;;10.23;3.83;;;21.00;99.90;;;;;;5023579;28;20436;-72
2023/07/12 03:39:30;;;;;;;8.30;3.23;;;20.90;99.90;;;;;;5024878;28;20423;-72
2023/07/12 03:42:16;;;;;;;7.83;3.53;;;21.00;99.90;;;;;;5021201;28;20507;-71
2023/07/12 03:45:02;;;;;;;10.87;4.30;;;20.90;99.90;;;;;;5011430;28;20524;-71
2023/07/12 03:47:47;;;;;;;11.37;4.03;;;20.80;99.90;;;;;;5016232;28;20952;-71
2023/07/12 03:50:34;;;;;;;13.27;3.63;;;20.80;99.90;;;;;;5024058;28;20881;-71
2023/07/12 03:53:19;;;;;;;5.30;3.47;;;20.80;99.90;;;;;;5027061;28;20443;-71
2023/07/12 03:56:05;;;;;;;12.97;3.40;;;20.90;99.90;;;;;;5026374;28;20440;-71
2023/07/12 03:58:51;;;;;;;6.00;3.30;;;20.90;99.90;;;;;;5025088;28;20849;-71
2023/07/12 04:01:36;;;;;;;7.03;3.20;;;20.80;99.90;;;;;;5023776;28;20800;-71
2023/07/12 04:04:22;;;;;;;5.70;3.40;;;21.00;99.90;;;;;;5031152;28;20450;-71
2023/07/12 04:07:09;;;;;;;5.63;3.63;;;20.90;99.90;;;;;;5030153;28;20503;-71
2023/07/12 04:09:54;;;;;;;8.20;3.23;;;21.00;99.90;;;;;;5023327;28;20432;-71
2023/07/12 04:12:40;;;;;;;10.10;3.30;;;21.00;99.90;;;;;;5026897;28;20476;-71
2023/07/12 04:15:26;;;;;;;5.13;3.03;;;21.00;99.90;;;;;;5025556;28;20441;-72
2023/07/12 04:18:11;;;;;;;7.40;3.30;;;20.90;99.90;;;;;;5027400;28;20453;-71
2023/07/12 04:21:02;;;;;;;15.07;3.70;;;21.00;99.90;;;;;;5022588;28;20446;-72
2023/07/12 04:23:49;;;;;;;5.73;3.43;;;21.00;99.90;;;;;;5022575;28;20477;-71
2023/07/12 04:26:37;;;;;;;6.10;3.40;;;20.90;99.90;;;;;;5026199;28;21002;-72
2023/07/12 04:29:22;;;;;;;8.20;3.70;;;21.00;99.90;;;;;;5025695;28;20444;-71
2023/07/12 04:32:08;;;;;;;8.33;3.80;;;21.00;99.90;;;;;;5025701;28;20961;-71
2023/07/12 04:34:54;;;;;;;8.60;4.27;;;21.10;99.90;;;;;;5021772;28;20437;-71
2023/07/12 04:37:45;;;;;;;7.60;4.17;;;21.10;99.90;;;;;;5027196;28;20555;-71
2023/07/12 04:40:32;;;;;;;10.60;4.90;;;21.20;99.90;;;;;;5026933;28;20504;-71
2023/07/12 04:43:18;;;;;;;9.10;4.50;;;21.30;99.90;;;;;;5026403;28;21372;-71
2023/07/12 04:46:04;;;;;;;9.87;4.67;;;21.40;99.90;;;;;;5026810;28;20654;-71
2023/07/12 04:48:49;;;;;;;10.47;5.30;;;21.40;99.90;;;;;;5024095;28;20435;-71
2023/07/12 04:51:35;;;;;;;8.40;5.40;;;21.40;99.90;;;;;;5029645;28;20985;-71
2023/07/12 04:54:21;;;;;;;7.17;4.60;;;21.50;99.90;;;;;;5016857;28;20825;-72
2023/07/12 04:57:08;;;;;;;9.57;4.83;;;21.70;99.90;;;;;;5036177;28;20452;-72
2023/07/12 04:59:53;;;;;;;10.73;5.10;;;21.70;99.90;;;;;;5024014;28;20453;-72
2023/07/12 05:02:39;;;;;;;13.07;4.80;;;21.80;99.90;;;;;;5025189;28;20933;-72
2023/07/12 05:05:24;;;;;;;7.60;5.70;;;21.90;99.90;;;;;;5036678;28;20492;-72
2023/07/12 05:08:10;;;;;;;10.60;5.10;;;21.90;99.90;;;;;;5039802;28;20456;-72
2023/07/12 05:10:58;;;;;;;11.40;5.63;;;21.80;99.90;;;;;;5038360;28;20465;-72
2023/07/12 05:13:45;;;;;;;8.43;5.40;;;21.80;99.90;;;;;;5033377;28;20505;-72
2023/07/12 05:16:30;;;;;;;7.93;5.07;;;21.70;99.90;;;;;;5039917;28;20483;-71
2023/07/12 05:19:16;;;;;;;11.00;6.40;;;21.70;99.90;;;;;;5038008;28;20424;-71
2023/07/12 05:22:01;;;;;;;7.17;4.70;;;21.70;99.90;;;;;;5026981;28;20415;-72
2023/07/12 05:24:47;;;;;;;9.40;5.00;;;21.70;99.90;;;;;;5030581;28;20572;-71
2023/07/12 05:27:33;;;;;;;12.27;5.10;;;21.70;99.90;;;;;;5026484;28;20523;-72
2023/07/12 05:30:19;;;;;;;10.27;5.30;;;21.70;99.90;;;;;;5028620;28;20449;-72
2023/07/12 05:33:04;;;;;;;13.00;5.33;;;21.80;99.90;;;;;;5022750;28;21082;-72
2023/07/12 05:35:50;;;;;;;13.90;6.30;;;21.80;99.90;;;;;;5015293;28;20860;-71
2023/07/12 05:38:36;;;;;;;8.17;5.87;;;21.80;99.90;;;;;;5029451;28;20444;-72
2023/07/12 05:41:21;;;;;;;12.57;5.30;;;21.80;99.90;;;;;;5027652;28;20443;-72
2023/07/12 05:44:07;;;;;;;7.80;5.47;;;21.80;99.90;;;;;;5024560;28;20481;-72
2023/07/12 05:46:54;;;;;;;18.43;5.70;;;21.90;99.90;;;;;;5025674;28;20427;-71
2023/07/12 05:49:39;;;;;;;8.80;5.33;;;22.10;99.90;;;;;;5025868;28;20436;-71
2023/07/12 05:52:24;;;;;;;13.07;6.80;;;22.00;99.90;;;;;;5024981;28;20801;-71
2023/07/12 05:55:12;;;;;;;11.67;6.17;;;21.90;99.90;;;;;;5023057;28;20459;-72
2023/07/12 05:57:57;;;;;;;9.27;6.13;;;21.90;99.90;;;;;;5025854;28;20512;-72
2023/07/12 06:00:43;;;;;;;13.80;5.90;;;21.90;99.90;;;;;;5023848;28;20456;-71
2023/07/12 06:03:32;;;;;;;8.47;5.83;;;21.90;99.90;;;;;;5026224;28;20603;-71
2023/07/12 06:06:17;;;;;;;13.67;6.07;;;22.00;99.90;;;;;;5020765;28;20524;-72
2023/07/12 06:09:03;;;;;;;10.67;6.83;;;22.00;99.90;;;;;;5026719;28;20805;-72
2023/07/12 06:11:49;;;;;;;8.97;6.20;;;22.00;99.90;;;;;;5023706;28;20497;-71
2023/07/12 06:14:34;;;;;;;11.23;6.63;;;22.10;99.90;;;;;;5030869;28;20431;-72
2023/07/12 06:17:19;;;;;;;11.43;6.63;;;22.20;99.90;;;;;;5023449;28;20467;-71
2023/07/12 06:20:08;;;;;;;14.30;6.37;;;22.20;99.90;;;;;;5028944;28;20812;-71
2023/07/12 06:22:53;;;;;;;7.47;5.63;;;22.30;99.90;;;;;;5023213;28;20578;-71
2023/07/12 06:25:40;;;;;;;7.80;5.70;;;22.40;99.90;;;;;;5017849;28;20493;-72
2023/07/12 06:28:25;;;;;;;12.90;6.03;;;22.40;99.90;;;;;;5018198;28;20454;-71
2023/07/12 06:31:11;;;;;;;7.97;5.10;;;22.50;99.90;;;;;;5018029;28;20499;-72
2023/07/12 06:33:59;;;;;;;9.63;5.53;;;22.50;99.90;;;;;;5018996;28;20956;-72
2023/07/12 06:36:46;;;;;;;10.23;5.87;;;22.50;99.90;;;;;;5018311;28;20441;-71
2023/07/12 06:39:31;;;;;;;9.87;6.17;;;22.40;99.90;;;;;;5014752;28;20452;-72
2023/07/12 06:42:17;;;;;;;23.93;6.67;;;22.50;99.90;;;;;;5016988;28;20443;-72
2023/07/12 06:45:03;;;;;;;11.97;5.90;;;22.60;99.90;;;;;;5023379;28;20424;-72
2023/07/12 06:47:48;;;;;;;9.87;5.90;;;22.60;99.90;;;;;;5018114;28;20444;-73
2023/07/12 06:50:33;;;;;;;11.70;6.30;;;22.70;99.90;;;;;;5024726;28;20819;-72
2023/07/12 06:53:20;;;;;;;9.10;6.03;;;22.70;99.90;;;;;;5018963;28;20825;-74
2023/07/12 06:56:06;;;;;;;15.60;6.90;;;22.70;99.90;;;;;;5023278;28;20448;-72
2023/07/12 06:58:52;;;;;;;9.03;7.50;;;22.70;99.90;;;;;;5016596;28;20828;-73
2023/07/12 07:01:38;;;;;;;12.13;7.47;;;22.70;99.90;;;;;;5017284;28;20432;-72
2023/07/12 07:04:23;;;;;;;10.50;7.73;;;22.70;99.90;;;;;;5018965;28;20489;-73
2023/07/12 07:07:08;;;;;;;14.10;7.00;;;22.70;99.90;;;;;;5021303;28;20457;-72
2023/07/12 07:09:55;;;;;;;18.33;7.47;;;22.70;99.90;;;;;;5015275;28;21028;-72
2023/07/12 07:12:41;;;;;;;11.67;8.57;;;22.60;99.90;;;;;;5017719;28;20492;-72
2023/07/12 07:15:27;;;;;;;13.93;8.03;;;22.70;99.90;;;;;;5015736;28;20451;-73
2023/07/12 07:18:12;;;;;;;11.93;7.60;;;22.80;99.90;;;;;;5020069;28;20492;-72
2023/07/12 07:20:59;;;;;;;9.10;7.20;;;23.00;99.90;;;;;;5019341;28;20426;-73
2023/07/12 07:23:44;;;;;;;10.27;7.60;;;23.30;99.90;;;;;;5024412;28;20534;-74
2023/07/12 07:26:31;;;;;;;15.43;7.87;;;23.40;99.90;;;;;;5029372;28;20441;-72
2023/07/12 07:29:17;;;;;;;15.57;8.10;;;23.30;99.90;;;;;;5025132;28;20601;-72
2023/07/12 07:32:02;;;;;;;11.70;7.90;;;23.30;99.90;;;;;;5023274;28;21003;-72
2023/07/12 07:34:47;;;;;;;11.63;8.40;;;23.30;99.90;;;;;;5023034;28;20803;-71
2023/07/12 07:37:33;;;;;;;10.67;9.00;;;23.20;99.90;;;;;;5020452;28;20457;-72
2023/07/12 07:40:18;;;;;;;14.00;8.47;;;23.00;99.90;;;;;;5024820;28;21028;-71
2023/07/12 07:43:05;;;;;;;9.83;8.63;;;23.30;99.90;;;;;;5022751;28;20472;-71
2023/07/12 07:45:51;;;;;;;16.40;9.97;;;23.40;99.90;;;;;;5022600;28;20822;-72
2023/07/12 07:48:36;;;;;;;20.40;10.80;;;23.50;99.90;;;;;;5027010;28;20515;-71
2023/07/12 07:51:21;;;;;;;12.90;10.10;;;23.50;99.90;;;;;;5027458;28;20866;-72
2023/07/12 07:54:07;;;;;;;19.43;10.53;;;23.60;99.90;;;;;;5025961;28;20464;-73
2023/07/12 07:56:52;;;;;;;14.53;10.47;;;23.80;99.90;;;;;;5028218;28;20418;-74
2023/07/12 07:59:40;;;;;;;18.43;9.77;;;23.90;99.90;;;;;;5025046;28;20440;-72
2023/07/12 08:02:25;;;;;;;12.53;8.67;;;24.00;99.90;;;;;;5038108;22;20776;-72
2023/07/12 08:05:11;;;;;;;15.93;9.80;;;24.20;99.90;;;;;;5025308;28;20472;-72
2023/07/12 08:07:58;;;;;;;13.83;10.30;;;24.40;99.90;;;;;;5024047;28;20444;-72
2023/07/12 08:10:44;;;;;;;12.60;11.30;;;24.30;99.90;;;;;;5025752;28;20448;-73
2023/07/12 08:13:29;;;;;;;12.00;10.23;;;24.40;99.90;;;;;;5025381;28;20889;-72
2023/07/12 08:16:16;;;;;;;14.57;11.67;;;24.50;99.90;;;;;;5026335;28;20469;-72
2023/07/12 08:19:02;;;;;;;11.13;9.93;;;24.50;99.90;;;;;;5028253;28;20423;-73
2023/07/12 08:21:49;;;;;;;23.13;10.20;;;24.50;99.90;;;;;;5026283;28;20479;-73
2023/07/12 08:24:34;;;;;;;10.87;9.67;;;24.50;99.90;;;;;;5024227;28;20420;-73
2023/07/12 08:27:20;;;;;;;12.40;8.60;;;24.70;99.90;;;;;;5023142;28;20592;-73
2023/07/12 08:30:07;;;;;;;17.17;9.90;;;24.70;99.90;;;;;;5019487;28;20445;-73
2023/07/12 08:32:53;;;;;;;11.50;8.67;;;24.80;99.90;;;;;;5020793;28;23099;-72
2023/07/12 08:35:39;;;;;;;13.80;10.07;;;25.00;99.90;;;;;;5019145;28;20977;-71
2023/07/12 08:38:24;;;;;;;10.20;9.20;;;25.00;99.90;;;;;;5021001;28;20453;-72
2023/07/12 08:41:15;;;;;;;12.13;9.43;;;25.00;99.90;;;;;;5028619;28;20427;-72
2023/07/12 08:44:01;;;;;;;12.20;8.90;;;25.10;99.90;;;;;;5027035;28;20655;-71
2023/07/12 08:46:51;;;;;;;12.40;8.00;;;25.30;99.90;;;;;;5026770;28;20445;-71
2023/07/12 08:49:37;;;;;;;8.93;8.03;;;25.20;99.90;;;;;;5021848;28;20449;-70
2023/07/12 08:52:34;;;;;;;8.40;7.47;;;25.20;99.90;;;;;;5019735;28;20942;-72
2023/07/12 08:55:22;;;;;;;7.07;6.33;;;25.20;99.90;;;;;;5018794;28;20596;-72
2023/07/12 08:58:18;;;;;;;7.20;6.43;;;25.30;99.90;;;;;;5020504;28;20456;-73
2023/07/12 09:01:07;;;;;;;8.17;6.97;;;25.40;99.90;;;;;;5022355;28;20453;-72
2023/07/12 09:03:53;;;;;;;6.90;5.67;;;25.40;99.90;;;;;;5022079;28;20496;-72
2023/07/12 09:06:39;;;;;;;11.93;7.07;;;25.60;99.90;;;;;;5022910;28;20986;-72
2023/07/12 09:09:26;;;;;;;11.53;5.70;;;25.70;99.90;;;;;;5023617;28;20462;-72
2023/07/12 09:12:24;;;;;;;8.40;6.60;;;25.70;99.90;;;;;;5015406;28;20472;-73
2023/07/12 09:15:12;;;;;;;10.13;6.20;;;25.60;99.90;;;;;;5020774;28;20973;-72
2023/07/12 09:17:58;;;;;;;8.00;7.13;;;25.70;99.90;;;;;;5025520;28;21018;-72
2023/07/12 09:20:43;;;;;;;9.70;7.53;;;25.80;99.90;;;;;;5023217;28;20580;-72
2023/07/12 09:23:38;;;;;;;8.43;6.70;;;25.60;99.90;;;;;;5026393;28;20462;-72
2023/07/12 09:26:26;;;;;;;9.87;6.97;;;25.50;99.90;;;;;;5021312;28;20449;-72
2023/07/12 09:29:14;;;;;;;9.87;6.70;;;25.60;99.90;;;;;;5026592;28;20815;-72
2023/07/12 09:32:01;;;;;;;7.77;5.90;;;25.60;99.90;;;;;;5029553;28;20416;-73
2023/07/12 09:34:47;;;;;;;9.93;6.60;;;25.80;99.90;;;;;;5025025;28;20452;-72
2023/07/12 09:37:37;;;;;;;9.73;6.10;;;25.70;99.90;;;;;;5024932;28;20579;-73
2023/07/12 09:40:24;;;;;;;8.93;6.20;;;25.60;99.90;;;;;;5026069;28;20838;-72
2023/07/12 09:43:17;;;;;;;9.60;6.30;;;25.60;99.90;;;;;;5024508;28;20853;-72
2023/07/12 09:46:11;;;;;;;10.40;6.50;;;25.80;99.90;;;;;;5025817;28;20545;-72
2023/07/12 09:49:01;;;;;;;9.90;6.70;;;25.90;99.90;;;;;;5020194;28;20616;-71
2023/07/12 09:51:54;;;;;;;7.33;6.03;;;26.00;99.90;;;;;;5022378;28;20875;-72
2023/07/12 09:54:47;;;;;;;7.70;5.93;;;25.90;98.30;;;;;;5017858;28;20974;-72
2023/07/12 09:57:44;;;;;;;11.50;5.70;;;25.90;99.90;;;;;;5017263;28;20512;-72
2023/07/12 10:00:34;;;;;;;9.57;5.53;;;26.00;99.90;;;;;;5021475;28;20528;-73
2023/07/12 10:03:24;;;;;;;6.70;4.70;;;26.10;97.90;;;;;;5021875;28;20499;-73
2023/07/12 10:06:20;;;;;;;8.07;5.40;;;26.20;84.70;;;;;;5022777;28;20470;-72
2023/07/12 10:09:10;;;;;;;9.67;5.10;;;26.20;86.50;;;;;;5025874;28;20595;-72
2023/07/12 10:12:23;;;;;;;7.43;4.90;;;26.10;84.10;;;;;;5023851;28;20441;-71
2023/07/12 10:15:13;;;;;;;16.87;5.10;;;26.10;79.30;;;;;;5022316;28;20600;-71
2023/07/12 10:17:59;;;;;;;6.30;5.23;;;26.10;79.30;;;;;;5027388;28;20588;-71
2023/07/12 10:20:47;;;;;;;6.10;5.50;;;26.00;86.80;;;;;;5017039;28;20417;-71
2023/07/12 10:23:40;;;;;;;6.70;5.70;;;25.90;80.10;;;;;;5017559;28;21001;-71
2023/07/12 10:26:26;;;;;;;8.50;6.17;;;25.90;86.40;;;;;;5021904;28;20552;-71
2023/07/12 10:29:17;;;;;;;10.37;6.00;;;26.10;85.00;;;;;;5018068;28;20454;-71
2023/07/12 10:32:06;;;;;;;8.90;6.07;;;26.20;83.30;;;;;;5021715;28;20460;-71
2023/07/12 10:35:05;;;;;;;9.50;6.17;;;26.30;91.10;;;;;;5021723;28;21063;-71
2023/07/12 10:37:57;;;;;;;9.00;6.03;;;26.50;90.20;;;;;;5023015;28;20554;-71
2023/07/12 10:40:50;;;;;;;9.83;5.83;;;26.50;88.90;;;;;;5021592;28;20491;-72
2023/07/12 10:43:40;;;;;;;8.90;6.20;;;26.30;81.40;;;;;;5020472;28;20461;-71
2023/07/12 10:46:30;;;;;;;6.23;5.57;;;26.10;87.90;;;;;;5018591;28;20500;-72
2023/07/12 10:49:20;;;;;;;6.13;5.47;;;26.00;87.30;;;;;;5013282;28;20571;-72
2023/07/12 10:52:16;;;;;;;9.10;6.77;;;26.10;88.60;;;;;;5021415;28;20585;-71
2023/07/12 10:55:21;;;;;;;8.40;5.90;;;26.20;93.00;;;;;;5019469;28;20441;-71
2023/07/12 10:58:45;;;;;;;9.70;6.20;;;26.40;86.10;;;;;;5023567;28;20452;-71
2023/07/12 11:01:48;;;;;;;10.00;6.37;;;26.50;82.30;;;;;;5019088;28;20459;-71
2023/07/12 11:04:45;;;;;;;8.10;6.20;;;26.40;81.90;;;;;;5018155;28;20534;-71
2023/07/12 11:07:36;;;;;;;8.53;5.80;;;26.50;82.10;;;;;;5024570;28;20474;-71
2023/07/12 11:10:26;;;;;;;7.73;6.57;;;26.50;80.50;;;;;;5019175;28;20965;-71
2023/07/12 11:13:13;;;;;;;7.67;6.10;;;26.30;75.30;;;;;;5020865;28;20844;-71
2023/07/12 11:16:04;;;;;;;9.63;6.23;;;26.30;81.80;;;;;;5020371;28;20450;-71
2023/07/12 11:18:54;;;;;;;6.53;5.77;;;26.20;79.40;;;;;;5021311;28;20958;-71
2023/07/12 11:21:50;;;;;;;6.07;5.17;;;26.20;81.70;;;;;;5017042;28;20455;-71
2023/07/12 11:24:39;;;;;;;8.13;6.50;;;26.30;82.60;;;;;;5020003;28;20526;-71
2023/07/12 11:27:31;;;;;;;9.20;6.57;;;26.30;83.60;;;;;;5021560;28;20536;-70
2023/07/12 11:30:23;;;;;;;6.10;5.50;;;26.40;86.30;;;;;;5018218;28;20464;-71
2023/07/12 11:33:24;;;;;;;7.00;5.80;;;26.30;84.20;;;;;;5021388;28;20478;-70
2023/07/12 11:36:18;;;;;;;8.83;5.97;;;26.30;86.30;;;;;;5021859;28;20511;-71
2023/07/12 11:39:14;;;;;;;8.07;5.93;;;26.40;86.00;;;;;;5018255;28;20498;-70
2023/07/12 11:42:08;;;;;;;6.97;6.27;;;26.40;85.40;;;;;;5022728;28;20868;-70
2023/07/12 11:45:01;;;;;;;6.73;4.80;;;26.40;83.50;;;;;;5015153;28;20469;-71
2023/07/12 11:47:49;;;;;;;5.60;4.80;;;26.30;72.50;;;;;;5022781;28;20445;-71
2023/07/12 11:50:35;;;;;;;9.03;4.67;;;26.30;77.80;;;;;;5021112;28;20455;-71
2023/07/12 11:53:21;;;;;;;7.93;5.67;;;26.10;75.70;;;;;;5012478;28;21380;-71
2023/07/12 11:56:14;;;;;;;8.20;5.20;;;26.00;77.30;;;;;;5023003;28;20447;-71
2023/07/12 11:59:01;;;;;;;6.13;5.10;;;25.90;80.50;;;;;;5016802;28;20468;-72
2023/07/12 12:01:49;;;;;;;6.83;4.60;;;25.90;79.70;;;;;;5021887;28;20448;-72
2023/07/12 12:04:34;;;;;;;7.03;5.57;;;26.00;79.30;;;;;;5021964;28;20460;-73
2023/07/12 12:07:27;;;;;;;7.47;5.33;;;26.00;79.30;;;;;;5022579;28;20457;-72
2023/07/12 12:10:21;;;;;;;8.60;4.60;;;26.00;80.20;;;;;;5022427;28;20467;-72
2023/07/12 12:13:26;;;;;;;5.80;4.67;;;26.10;79.30;;;;;;5023068;28;20486;-72
2023/07/12 12:16:19;;;;;;;4.50;3.90;;;26.30;81.50;;;;;;5027665;28;20609;-72
2023/07/12 12:19:16;;;;;;;9.00;4.47;;;26.50;79.60;;;;;;5025604;28;20463;-72
2023/07/12 12:22:03;;;;;;;6.47;4.40;;;26.70;79.70;;;;;;5022003;28;20973;-71
2023/07/12 12:24:50;;;;;;;6.33;4.40;;;26.80;75.00;;;;;;5023864;28;20452;-71
2023/07/12 12:27:39;;;;;;;6.10;4.27;;;26.90;74.90;;;;;;5030019;28;20444;-73
2023/07/12 12:30:29;;;;;;;6.50;3.90;;;26.90;68.40;;;;;;5024942;28;20580;-71
2023/07/12 12:33:24;;;;;;;6.80;3.93;;;26.90;62.30;;;;;;5025360;28;20537;-71
2023/07/12 12:36:23;;;;;;;6.00;3.80;;;26.80;67.10;;;;;;5026729;28;20928;-72
2023/07/12 12:39:20;;;;;;;4.80;3.37;;;26.70;70.20;;;;;;5021174;28;23768;-71
2023/07/12 12:42:18;;;;;;;5.00;3.17;;;26.50;69.30;;;;;;5023996;28;20442;-71
2023/07/12 12:45:05;;;;;;;6.83;3.83;;;26.60;71.20;;;;;;5025399;28;20446;-71
2023/07/12 12:47:51;;;;;;;6.93;3.47;;;26.40;70.10;;;;;;5024496;28;20492;-72
2023/07/12 12:50:37;;;;;;;8.43;3.07;;;26.40;69.80;;;;;;5020656;28;20445;-72
2023/07/12 12:53:22;;;;;;;11.27;3.17;;;26.30;67.10;;;;;;5020113;28;20496;-72
2023/07/12 12:56:11;;;;;;;4.57;2.87;;;26.40;72.00;;;;;;5023816;28;20879;-71
2023/07/12 12:58:56;;;;;;;3.97;2.50;;;26.50;68.70;;;;;;5022317;28;20495;-72
2023/07/12 13:01:42;;;;;;;9.23;2.00;;;26.70;67.80;;;;;;5023258;28;20446;-71
2023/07/12 13:04:29;;;;;;;4.63;2.50;;;27.10;65.40;;;;;;5021097;28;20979;-71
2023/07/12 13:07:20;;;;;;;3.70;2.23;;;27.40;60.40;;;;;;5025089;28;20460;-72
2023/07/12 13:10:07;;;;;;;4.30;2.70;;;27.50;60.50;;;;;;5023758;28;20443;-71
2023/07/12 13:12:53;;;;;;;5.97;2.70;;;27.70;52.80;;;;;;5023094;28;20461;-71
2023/07/12 13:15:38;;;;;;;4.50;2.47;;;27.70;52.80;;;;;;5022731;28;20532;-71
2023/07/12 13:18:25;;;;;;;4.57;2.03;;;27.60;49.40;;;;;;5021458;28;20441;-72
2023/07/12 13:21:17;;;;;;;6.00;1.93;;;27.70;52.10;;;;;;5024899;28;20455;-71
2023/07/12 13:24:02;;;;;;;5.33;2.07;;;27.30;49.40;;;;;;5022619;28;20467;-72
2023/07/12 13:26:48;;;;;;;2.80;1.70;;;27.30;54.90;;;;;;5027498;28;22851;-71
2023/07/12 13:29:33;;;;;;;3.47;1.80;;;27.40;50.10;;;;;;5023079;28;20458;-71
2023/07/12 13:32:20;;;;;;;4.13;2.17;;;27.40;46.80;;;;;;5018720;28;20461;-71
2023/07/12 13:35:07;;;;;;;3.30;1.70;;;27.40;52.00;;;;;;5021589;28;21003;-72
2023/07/12 13:37:54;;;;;;;4.03;1.83;;;27.50;48.00;;;;;;5023308;28;20572;-71
2023/07/12 13:40:40;;;;;;;11.27;1.97;;;27.60;49.90;;;;;;5024251;28;20589;-71
2023/07/12 13:43:25;;;;;;;4.30;2.10;;;27.80;48.90;;;;;;5023033;28;20467;-71
2023/07/12 13:46:12;;;;;;;3.47;1.80;;;27.80;43.70;;;;;;5019352;28;20529;-71
2023/07/12 13:48:58;;;;;;;5.60;1.80;;;28.00;40.10;;;;;;5020112;28;20900;-72
2023/07/12 13:51:44;;;;;;;4.17;1.60;;;28.10;38.50;;;;;;5023032;28;20529;-72
2023/07/12 13:54:31;;;;;;;3.87;1.90;;;28.20;35.80;;;;;;5021877;28;20667;-73
2023/07/12 13:57:19;;;;;;;3.80;1.70;;;28.40;36.00;;;;;;5024109;28;20453;-72
2023/07/12 14:00:11;;;;;;;3.10;1.60;;;28.70;33.50;;;;;;5018831;28;20444;-73
2023/07/12 14:02:59;;;;;;;4.70;1.60;;;28.40;33.30;;;;;;5022170;28;20516;-74
2023/07/12 14:05:44;;;;;;;3.77;1.93;;;28.30;33.80;;;;;;5021908;28;20453;-73
2023/07/12 14:08:30;;;;;;;6.00;1.70;;;28.40;30.20;;;;;;5019248;28;20985;-73
2023/07/12 14:11:23;;;;;;;3.00;1.40;;;28.30;34.50;;;;;;5022682;28;20583;-74
2023/07/12 14:14:13;;;;;;;3.93;1.70;;;28.30;34.80;;;;;;5019559;28;20633;-74
2023/07/12 14:16:58;;;;;;;3.17;1.50;;;28.40;36.90;;;;;;5023818;28;20449;-74
2023/07/12 14:19:46;;;;;;;3.20;1.50;;;28.20;30.10;;;;;;5025568;28;20812;-74
2023/07/12 14:22:32;;;;;;;4.60;1.77;;;28.00;36.90;;;;;;5024041;28;20477;-74
2023/07/12 14:25:19;;;;;;;2.80;1.70;;;28.00;33.90;;;;;;5020944;28;20533;-73
2023/07/12 14:28:07;;;;;;;4.27;1.80;;;28.00;33.80;;;;;;5020749;28;20551;-73
2023/07/12 14:30:53;;;;;;;4.93;1.83;;;27.80;34.60;;;;;;5023318;28;20460;-73